Niuzhuang, China
Current Conditions -  °F | °C
As of 2:00 AM on Sunday 26 Oct 2014 (Local Time) from ZYTX Reporting Station
Haze Haze  
Wind Chill: 57°   Ceiling: 3300
Heat Index: 57°   Visibility: 2.5mi
Dew Point: 43°   Wind: 20mph
Humidity: 59%   Direction: 320°NW
Pressure: 30"   Gusts: 31mph
Location:  40.97°N, 122.53°E
Report Text: ZYTX 251800Z 32009G14MPS 4000 HZ OVC033 14/06 Q1016 NOSIG
Loading
Personal Weather Stations






























Interactive Weather Map
Tropical Storm Tracking
New forecast layout! Learn more

10-Day Weather Forecast

Advertisements
Track Severe Weather on mobile